sensor_id;sensor_type;location;lat;lon;timestamp;noise_LAeq;noise_LA_min;noise_LA_max;noise_LA01;noise_LA95
69609;Laerm;56815;52.320;4.858;2023-11-21T00:00:05;35.37;31.53;49.12;;
69609;Laerm;56815;52.320;4.858;2023-11-21T00:00:22;35.70;32.48;47.18;;
69609;Laerm;56815;52.320;4.858;2023-11-21T00:00:32;34.77;31.47;49.56;;
69609;Laerm;56815;52.320;4.858;2023-11-21T00:00:45;33.90;31.93;42.78;;
69609;Laerm;56815;52.320;4.858;2023-11-21T00:02:21;35.57;32.17;57.89;;
69609;Laerm;56815;52.320;4.858;2023-11-21T00:02:31;35.50;32.29;50.12;;
69609;Laerm;56815;52.320;4.858;2023-11-21T00:02:43;34.92;32.33;39.53;;
69609;Laerm;56815;52.320;4.858;2023-11-21T00:02:54;35.46;32.85;42.14;;
69609;Laerm;56815;52.320;4.858;2023-11-21T00:03:04;34.85;31.81;45.00;;
69609;Laerm;56815;52.320;4.858;2023-11-21T00:03:14;35.97;33.72;39.10;;
69609;Laerm;56815;52.320;4.858;2023-11-21T00:03:29;35.97;32.70;48.91;;
69609;Laerm;56815;52.320;4.858;2023-11-21T00:03:39;35.67;33.23;38.88;;
69609;Laerm;56815;52.320;4.858;2023-11-21T00:04:58;37.22;33.43;46.61;;
69609;Laerm;56815;52.320;4.858;2023-11-21T00:05:08;36.52;34.10;39.93;;
69609;Laerm;56815;52.320;4.858;2023-11-21T00:05:19;36.90;34.52;46.15;;
69609;Laerm;56815;52.320;4.858;2023-11-21T00:05:30;37.19;34.72;44.12;;
69609;Laerm;56815;52.320;4.858;2023-11-21T00:05:40;37.77;35.04;46.67;;
69609;Laerm;56815;52.320;4.858;2023-11-21T00:05:51;37.13;33.63;42.15;;
69609;Laerm;56815;52.320;4.858;2023-11-21T00:06:04;37.04;33.38;45.73;;
69609;Laerm;56815;52.320;4.858;2023-11-21T00:06:17;36.18;33.03;40.72;;
69609;Laerm;56815;52.320;4.858;2023-11-21T00:07:32;38.09;33.91;57.46;;
69609;Laerm;56815;52.320;4.858;2023-11-21T00:07:42;36.21;33.63;41.08;;
69609;Laerm;56815;52.320;4.858;2023-11-21T00:07:53;37.02;34.04;40.56;;
69609;Laerm;56815;52.320;4.858;2023-11-21T00:08:03;37.66;34.68;47.03;;
69609;Laerm;56815;52.320;4.858;2023-11-21T00:08:15;37.76;34.43;40.57;;
69609;Laerm;56815;52.320;4.858;2023-11-21T00:08:25;37.45;34.79;42.94;;
69609;Laerm;56815;52.320;4.858;2023-11-21T00:08:36;37.15;33.69;43.96;;
69609;Laerm;56815;52.320;4.858;2023-11-21T00:08:46;36.73;34.28;40.94;;
69609;Laerm;56815;52.320;4.858;2023-11-21T00:10:03;37.25;33.69;49.10;;
69609;Laerm;56815;52.320;4.858;2023-11-21T00:10:15;35.86;33.44;38.25;;
69609;Laerm;56815;52.320;4.858;2023-11-21T00:10:28;37.35;34.19;42.84;;
69609;Laerm;56815;52.320;4.858;2023-11-21T00:10:38;36.73;33.73;47.53;;
69609;Laerm;56815;52.320;4.858;2023-11-21T00:10:49;36.00;33.35;40.26;;
69609;Laerm;56815;52.320;4.858;2023-11-21T00:11:02;35.80;33.21;40.89;;
69609;Laerm;56815;52.320;4.858;2023-11-21T00:11:15;36.75;33.95;42.37;;
69609;Laerm;56815;52.320;4.858;2023-11-21T00:12:29;35.16;31.75;48.74;;
69609;Laerm;56815;52.320;4.858;2023-11-21T00:12:40;36.89;33.43;43.28;;
69609;Laerm;56815;52.320;4.858;2023-11-21T00:12:54;34.61;31.45;42.47;;
69609;Laerm;56815;52.320;4.858;2023-11-21T00:13:05;34.86;32.23;39.72;;
69609;Laerm;56815;52.320;4.858;2023-11-21T00:13:15;35.29;32.29;47.71;;
69609;Laerm;56815;52.320;4.858;2023-11-21T00:13:25;34.18;31.74;42.53;;
69609;Laerm;56815;52.320;4.858;2023-11-21T00:13:36;34.41;32.03;40.10;;
69609;Laerm;56815;52.320;4.858;2023-11-21T00:13:46;35.02;31.52;46.93;;
69609;Laerm;56815;52.320;4.858;2023-11-21T00:15:03;35.43;31.72;51.79;;
69609;Laerm;56815;52.320;4.858;2023-11-21T00:15:15;34.61;31.99;47.78;;
69609;Laerm;56815;52.320;4.858;2023-11-21T00:15:25;35.42;31.56;44.41;;
69609;Laerm;56815;52.320;4.858;2023-11-21T00:15:36;38.30;32.35;51.75;;
69609;Laerm;56815;52.320;4.858;2023-11-21T00:15:46;36.72;32.40;57.01;;
69609;Laerm;56815;52.320;4.858;2023-11-21T00:15:57;35.42;32.88;43.49;;
69609;Laerm;56815;52.320;4.858;2023-11-21T00:16:07;36.71;32.63;44.52;;
69609;Laerm;56815;52.320;4.858;2023-11-21T00:16:17;34.43;32.34;43.32;;
69609;Laerm;56815;52.320;4.858;2023-11-21T00:18:00;36.72;32.38;55.67;;
69609;Laerm;56815;52.320;4.858;2023-11-21T00:18:10;35.70;33.67;39.57;;
69609;Laerm;56815;52.320;4.858;2023-11-21T00:18:21;35.04;32.71;38.74;;
69609;Laerm;56815;52.320;4.858;2023-11-21T00:18:31;36.02;33.76;41.44;;
69609;Laerm;56815;52.320;4.858;2023-11-21T00:18:42;34.56;32.48;37.82;;
69609;Laerm;56815;52.320;4.858;2023-11-21T00:19:59;35.53;31.81;48.25;;
69609;Laerm;56815;52.320;4.858;2023-11-21T00:20:12;36.06;33.13;43.26;;
69609;Laerm;56815;52.320;4.858;2023-11-21T00:20:29;34.49;31.92;45.68;;
69609;Laerm;56815;52.320;4.858;2023-11-21T00:20:40;35.75;32.05;45.29;;
69609;Laerm;56815;52.320;4.858;2023-11-21T00:20:50;34.51;32.27;38.05;;
69609;Laerm;56815;52.320;4.858;2023-11-21T00:21:03;38.29;33.20;54.81;;
69609;Laerm;56815;52.320;4.858;2023-11-21T00:21:14;35.66;33.06;42.46;;
69609;Laerm;56815;52.320;4.858;2023-11-21T00:22:33;34.26;30.72;55.92;;
69609;Laerm;56815;52.320;4.858;2023-11-21T00:22:44;33.54;31.35;44.00;;
69609;Laerm;56815;52.320;4.858;2023-11-21T00:23:28;35.43;30.74;49.47;;
69609;Laerm;56815;52.320;4.858;2023-11-21T00:23:39;33.31;31.07;36.54;;
69609;Laerm;56815;52.320;4.858;2023-11-21T00:24:58;32.60;30.23;42.85;;
69609;Laerm;56815;52.320;4.858;2023-11-21T00:25:09;31.88;30.15;34.73;;
69609;Laerm;56815;52.320;4.858;2023-11-21T00:25:20;33.31;30.26;50.47;;
69609;Laerm;56815;52.320;4.858;2023-11-21T00:25:30;32.71;31.03;39.77;;
69609;Laerm;56815;52.320;4.858;2023-11-21T00:25:41;32.91;30.87;39.65;;
69609;Laerm;56815;52.320;4.858;2023-11-21T00:27:20;32.92;30.26;47.95;;
69609;Laerm;56815;52.320;4.858;2023-11-21T00:27:30;32.75;30.15;35.73;;
69609;Laerm;56815;52.320;4.858;2023-11-21T00:27:46;32.89;30.88;34.90;;
69609;Laerm;56815;52.320;4.858;2023-11-21T00:27:56;33.31;31.13;43.91;;
69609;Laerm;56815;52.320;4.858;2023-11-21T00:28:07;33.04;30.94;39.11;;
69609;Laerm;56815;52.320;4.858;2023-11-21T00:28:17;33.73;30.99;37.90;;
69609;Laerm;56815;52.320;4.858;2023-11-21T00:28:30;33.44;31.09;37.10;;
69609;Laerm;56815;52.320;4.858;2023-11-21T00:28:40;34.30;30.30;55.17;;
69609;Laerm;56815;52.320;4.858;2023-11-21T00:28:55;32.58;30.33;35.16;;
69609;Laerm;56815;52.320;4.858;2023-11-21T00:30:00;34.04;31.22;51.79;;
69609;Laerm;56815;52.320;4.858;2023-11-21T00:30:10;34.75;31.34;45.17;;
69609;Laerm;56815;52.320;4.858;2023-11-21T00:30:21;33.52;31.35;39.06;;
69609;Laerm;56815;52.320;4.858;2023-11-21T00:30:32;33.68;31.49;36.87;;
69609;Laerm;56815;52.320;4.858;2023-11-21T00:30:43;34.14;31.65;37.11;;
69609;Laerm;56815;52.320;4.858;2023-11-21T00:30:53;35.87;31.62;54.98;;
69609;Laerm;56815;52.320;4.858;2023-11-21T00:31:04;33.59;30.93;36.19;;
69609;Laerm;56815;52.320;4.858;2023-11-21T00:31:14;35.61;31.33;55.05;;
69609;Laerm;56815;52.320;4.858;2023-11-21T00:32:10;33.62;30.85;42.88;;
69609;Laerm;56815;52.320;4.858;2023-11-21T00:32:29;32.76;30.90;36.21;;
69609;Laerm;56815;52.320;4.858;2023-11-21T00:32:39;33.14;30.58;39.50;;
69609;Laerm;56815;52.320;4.858;2023-11-21T00:32:53;32.97;31.00;35.96;;
69609;Laerm;56815;52.320;4.858;2023-11-21T00:33:03;32.47;30.34;39.70;;
69609;Laerm;56815;52.320;4.858;2023-11-21T00:33:14;32.64;30.77;37.53;;
69609;Laerm;56815;52.320;4.858;2023-11-21T00:33:24;33.27;31.16;39.37;;
69609;Laerm;56815;52.320;4.858;2023-11-21T00:33:35;34.11;30.62;49.18;;
69609;Laerm;56815;52.320;4.858;2023-11-21T00:33:45;33.77;31.19;42.86;;
69609;Laerm;56815;52.320;4.858;2023-11-21T00:35:04;33.03;30.61;42.79;;
69609;Laerm;56815;52.320;4.858;2023-11-21T00:35:15;33.28;30.99;41.92;;
69609;Laerm;56815;52.320;4.858;2023-11-21T00:35:26;34.10;31.67;40.56;;
69609;Laerm;56815;52.320;4.858;2023-11-21T00:35:36;34.19;31.59;37.32;;
69609;Laerm;56815;52.320;4.858;2023-11-21T00:37:21;34.06;31.06;43.39;;
69609;Laerm;56815;52.320;4.858;2023-11-21T00:37:31;34.40;31.94;39.57;;
69609;Laerm;56815;52.320;4.858;2023-11-21T00:37:42;34.49;31.57;38.71;;
69609;Laerm;56815;52.320;4.858;2023-11-21T00:37:55;34.60;32.05;41.72;;
69609;Laerm;56815;52.320;4.858;2023-11-21T00:38:08;33.60;31.46;41.57;;
69609;Laerm;56815;52.320;4.858;2023-11-21T00:38:22;33.48;31.49;35.72;;
69609;Laerm;56815;52.320;4.858;2023-11-21T00:38:33;33.91;31.87;36.68;;
69609;Laerm;56815;52.320;4.858;2023-11-21T00:38:43;33.78;31.70;44.78;;
69609;Laerm;56815;52.320;4.858;2023-11-21T00:39:59;35.59;30.82;47.24;;
69609;Laerm;56815;52.320;4.858;2023-11-21T00:40:10;34.38;31.43;43.00;;
69609;Laerm;56815;52.320;4.858;2023-11-21T00:40:20;34.87;31.41;52.19;;
69609;Laerm;56815;52.320;4.858;2023-11-21T00:40:31;33.58;31.81;35.48;;
69609;Laerm;56815;52.320;4.858;2023-11-21T00:40:41;33.25;31.10;38.19;;
69609;Laerm;56815;52.320;4.858;2023-11-21T00:40:52;34.13;32.13;36.30;;
69609;Laerm;56815;52.320;4.858;2023-11-21T00:41:06;33.94;31.61;37.76;;
69609;Laerm;56815;52.320;4.858;2023-11-21T00:41:16;32.72;31.02;36.29;;
69609;Laerm;56815;52.320;4.858;2023-11-21T00:42:32;32.20;29.95;41.10;;
69609;Laerm;56815;52.320;4.858;2023-11-21T00:42:44;33.03;30.25;42.89;;
69609;Laerm;56815;52.320;4.858;2023-11-21T00:42:54;32.92;31.04;35.79;;
69609;Laerm;56815;52.320;4.858;2023-11-21T00:43:06;33.35;30.30;35.83;;
69609;Laerm;56815;52.320;4.858;2023-11-21T00:43:16;34.59;30.20;55.09;;
69609;Laerm;56815;52.320;4.858;2023-11-21T00:44:51;32.85;29.76;42.58;;
69609;Laerm;56815;52.320;4.858;2023-11-21T00:45:01;32.67;30.03;43.39;;
69609;Laerm;56815;52.320;4.858;2023-11-21T00:45:12;32.74;30.88;44.22;;
69609;Laerm;56815;52.320;4.858;2023-11-21T00:45:22;32.37;30.45;36.84;;
69609;Laerm;56815;52.320;4.858;2023-11-21T00:45:32;32.65;30.47;46.64;;
69609;Laerm;56815;52.320;4.858;2023-11-21T00:45:43;31.94;30.07;34.35;;
69609;Laerm;56815;52.320;4.858;2023-11-21T00:45:59;31.87;30.17;36.77;;
69609;Laerm;56815;52.320;4.858;2023-11-21T00:46:09;31.75;30.23;37.59;;
69609;Laerm;56815;52.320;4.858;2023-11-21T00:47:27;31.82;29.25;41.74;;
69609;Laerm;56815;52.320;4.858;2023-11-21T00:47:37;32.04;29.70;41.45;;
69609;Laerm;56815;52.320;4.858;2023-11-21T00:48:31;31.65;29.58;41.22;;
69609;Laerm;56815;52.320;4.858;2023-11-21T00:48:41;31.67;29.61;36.51;;
69609;Laerm;56815;52.320;4.858;2023-11-21T00:49:58;31.65;29.19;43.81;;
69609;Laerm;56815;52.320;4.858;2023-11-21T00:50:09;32.41;30.63;41.36;;
69609;Laerm;56815;52.320;4.858;2023-11-21T00:50:20;32.46;30.66;39.24;;
69609;Laerm;56815;52.320;4.858;2023-11-21T00:50:33;32.17;30.21;37.66;;
69609;Laerm;56815;52.320;4.858;2023-11-21T00:50:46;32.59;30.65;34.78;;
69609;Laerm;56815;52.320;4.858;2023-11-21T00:51:00;35.79;30.09;59.76;;
69609;Laerm;56815;52.320;4.858;2023-11-21T00:51:10;32.00;30.49;35.43;;
69609;Laerm;56815;52.320;4.858;2023-11-21T00:52:27;32.14;29.67;44.40;;
69609;Laerm;56815;52.320;4.858;2023-11-21T00:52:37;32.14;30.33;42.60;;
69609;Laerm;56815;52.320;4.858;2023-11-21T00:52:48;31.63;30.03;34.18;;
69609;Laerm;56815;52.320;4.858;2023-11-21T00:53:29;32.36;29.27;44.22;;
69609;Laerm;56815;52.320;4.858;2023-11-21T00:53:42;32.44;29.95;40.69;;
69609;Laerm;56815;52.320;4.858;2023-11-21T00:54:35;32.29;29.46;47.55;;
69609;Laerm;56815;52.320;4.858;2023-11-21T00:54:46;32.19;30.37;34.99;;
69609;Laerm;56815;52.320;4.858;2023-11-21T00:54:58;31.82;29.73;38.59;;
69609;Laerm;56815;52.320;4.858;2023-11-21T00:55:13;31.55;29.18;38.23;;
69609;Laerm;56815;52.320;4.858;2023-11-21T00:55:23;31.39;29.24;41.01;;
69609;Laerm;56815;52.320;4.858;2023-11-21T00:55:33;32.40;28.99;46.15;;
69609;Laerm;56815;52.320;4.858;2023-11-21T00:55:44;31.50;29.36;44.84;;
69609;Laerm;56815;52.320;4.858;2023-11-21T00:55:57;31.22;29.76;33.74;;
69609;Laerm;56815;52.320;4.858;2023-11-21T00:56:07;31.76;29.52;40.18;;
69609;Laerm;56815;52.320;4.858;2023-11-21T00:56:18;31.00;29.33;38.85;;
69609;Laerm;56815;52.320;4.858;2023-11-21T00:56:40;31.64;29.34;47.55;;
69609;Laerm;56815;52.320;4.858;2023-11-21T00:57:19;31.06;29.27;37.86;;
69609;Laerm;56815;52.320;4.858;2023-11-21T00:57:30;31.65;29.41;38.64;;
69609;Laerm;56815;52.320;4.858;2023-11-21T00:57:40;31.63;29.66;44.04;;
69609;Laerm;56815;52.320;4.858;2023-11-21T00:57:56;30.58;28.77;32.74;;
69609;Laerm;56815;52.320;4.858;2023-11-21T00:58:12;30.82;29.13;39.10;;
69609;Laerm;56815;52.320;4.858;2023-11-21T00:58:25;30.90;29.24;36.82;;
69609;Laerm;56815;52.320;4.858;2023-11-21T00:58:36;30.94;29.47;35.14;;
69609;Laerm;56815;52.320;4.858;2023-11-21T00:59:54;31.70;29.39;53.09;;
69609;Laerm;56815;52.320;4.858;2023-11-21T01:00:05;32.40;30.38;36.48;;
69609;Laerm;56815;52.320;4.858;2023-11-21T01:00:27;32.38;29.41;43.80;;
69609;Laerm;56815;52.320;4.858;2023-11-21T01:00:37;31.26;28.82;42.12;;
69609;Laerm;56815;52.320;4.858;2023-11-21T01:00:49;30.94;29.45;40.63;;
69609;Laerm;56815;52.320;4.858;2023-11-21T01:00:59;30.96;29.40;33.11;;
69609;Laerm;56815;52.320;4.858;2023-11-21T01:01:10;33.04;29.33;52.02;;
69609;Laerm;56815;52.320;4.858;2023-11-21T01:02:26;32.07;29.51;43.40;;
69609;Laerm;56815;52.320;4.858;2023-11-21T01:02:36;31.48;29.75;37.44;;
69609;Laerm;56815;52.320;4.858;2023-11-21T01:02:46;31.17;29.61;34.71;;
69609;Laerm;56815;52.320;4.858;2023-11-21T01:02:59;31.53;29.66;38.59;;
69609;Laerm;56815;52.320;4.858;2023-11-21T01:03:10;31.92;29.43;37.69;;
69609;Laerm;56815;52.320;4.858;2023-11-21T01:03:20;32.21;30.50;34.79;;
69609;Laerm;56815;52.320;4.858;2023-11-21T01:03:30;31.75;30.16;37.72;;
69609;Laerm;56815;52.320;4.858;2023-11-21T01:03:41;31.80;30.00;41.92;;
69609;Laerm;56815;52.320;4.858;2023-11-21T01:03:51;31.74;29.58;46.66;;
69609;Laerm;56815;52.320;4.858;2023-11-21T01:04:04;31.26;29.31;39.80;;
69609;Laerm;56815;52.320;4.858;2023-11-21T01:04:48;32.45;28.92;56.83;;
69609;Laerm;56815;52.320;4.858;2023-11-21T01:04:59;31.63;29.29;36.72;;
69609;Laerm;56815;52.320;4.858;2023-11-21T01:05:09;31.60;29.21;36.33;;
69609;Laerm;56815;52.320;4.858;2023-11-21T01:05:22;31.57;29.48;37.13;;
69609;Laerm;56815;52.320;4.858;2023-11-21T01:05:32;31.03;29.36;32.99;;
69609;Laerm;56815;52.320;4.858;2023-11-21T01:05:43;31.15;29.54;34.45;;
69609;Laerm;56815;52.320;4.858;2023-11-21T01:05:53;30.95;29.20;37.29;;
69609;Laerm;56815;52.320;4.858;2023-11-21T01:06:04;31.54;29.40;43.62;;
69609;Laerm;56815;52.320;4.858;2023-11-21T01:07:04;31.13;29.46;43.61;;
69609;Laerm;56815;52.320;4.858;2023-11-21T01:08:01;31.29;29.56;37.44;;
69609;Laerm;56815;52.320;4.858;2023-11-21T01:08:11;31.09;29.73;36.98;;
69609;Laerm;56815;52.320;4.858;2023-11-21T01:08:22;31.42;29.30;36.90;;
69609;Laerm;56815;52.320;4.858;2023-11-21T01:08:34;38.60;29.90;60.21;;
69609;Laerm;56815;52.320;4.858;2023-11-21T01:08:44;31.21;29.79;33.16;;
69609;Laerm;56815;52.320;4.858;2023-11-21T01:09:22;31.46;29.20;44.42;;
69609;Laerm;56815;52.320;4.858;2023-11-21T01:10:05;31.10;29.24;39.79;;
69609;Laerm;56815;52.320;4.858;2023-11-21T01:10:22;31.03;29.20;35.44;;
69609;Laerm;56815;52.320;4.858;2023-11-21T01:10:35;31.50;29.63;40.68;;
69609;Laerm;56815;52.320;4.858;2023-11-21T01:10:46;31.71;30.15;33.35;;
69609;Laerm;56815;52.320;4.858;2023-11-21T01:10:56;31.15;29.67;34.25;;
69609;Laerm;56815;52.320;4.858;2023-11-21T01:11:10;31.02;29.48;33.78;;
69609;Laerm;56815;52.320;4.858;2023-11-21T01:12:09;31.69;29.40;46.28;;
69609;Laerm;56815;52.320;4.858;2023-11-21T01:12:29;32.70;30.30;42.93;;
69609;Laerm;56815;52.320;4.858;2023-11-21T01:12:39;31.64;30.13;34.61;;
69609;Laerm;56815;52.320;4.858;2023-11-21T01:12:52;31.58;29.72;43.01;;
69609;Laerm;56815;52.320;4.858;2023-11-21T01:13:03;30.99;29.09;40.11;;
69609;Laerm;56815;52.320;4.858;2023-11-21T01:13:17;31.02;29.05;35.33;;
69609;Laerm;56815;52.320;4.858;2023-11-21T01:13:27;31.79;30.09;44.37;;
69609;Laerm;56815;52.320;4.858;2023-11-21T01:13:39;32.06;30.30;34.85;;
69609;Laerm;56815;52.320;4.858;2023-11-21T01:14:59;32.03;29.67;51.77;;
69609;Laerm;56815;52.320;4.858;2023-11-21T01:15:10;35.70;32.78;42.01;;
69609;Laerm;56815;52.320;4.858;2023-11-21T01:15:22;35.48;32.27;38.82;;
69609;Laerm;56815;52.320;4.858;2023-11-21T01:15:33;37.38;33.79;48.36;;
69609;Laerm;56815;52.320;4.858;2023-11-21T01:15:46;36.10;32.24;39.25;;
69609;Laerm;56815;52.320;4.858;2023-11-21T01:18:10;33.67;29.37;59.26;;
69609;Laerm;56815;52.320;4.858;2023-11-21T01:18:21;31.64;30.06;34.30;;
69609;Laerm;56815;52.320;4.858;2023-11-21T01:18:31;32.36;29.31;47.49;;
69609;Laerm;56815;52.320;4.858;2023-11-21T01:18:42;32.18;29.37;42.90;;
69609;Laerm;56815;52.320;4.858;2023-11-21T01:20:03;37.83;29.47;60.03;;
69609;Laerm;56815;52.320;4.858;2023-11-21T01:21:00;34.46;29.39;51.47;;
69609;Laerm;56815;52.320;4.858;2023-11-21T01:21:10;35.24;29.38;51.25;;
69609;Laerm;56815;52.320;4.858;2023-11-21T01:22:51;36.16;29.12;54.87;;
69609;Laerm;56815;52.320;4.858;2023-11-21T01:23:02;33.71;31.26;45.39;;
69609;Laerm;56815;52.320;4.858;2023-11-21T01:23:15;33.87;30.68;50.73;;
69609;Laerm;56815;52.320;4.858;2023-11-21T01:23:28;31.43;29.56;34.59;;
69609;Laerm;56815;52.320;4.858;2023-11-21T01:23:38;31.48;29.60;34.29;;
69609;Laerm;56815;52.320;4.858;2023-11-21T01:23:52;32.45;29.39;36.89;;
69609;Laerm;56815;52.320;4.858;2023-11-21T01:24:48;31.78;28.76;45.24;;
69609;Laerm;56815;52.320;4.858;2023-11-21T01:24:58;34.12;29.30;48.48;;
69609;Laerm;56815;52.320;4.858;2023-11-21T01:25:12;31.82;29.66;35.42;;
69609;Laerm;56815;52.320;4.858;2023-11-21T01:25:24;31.76;29.69;35.83;;
69609;Laerm;56815;52.320;4.858;2023-11-21T01:25:34;31.28;28.86;37.45;;
69609;Laerm;56815;52.320;4.858;2023-11-21T01:25:46;30.55;28.70;33.87;;
69609;Laerm;56815;52.320;4.858;2023-11-21T01:25:56;30.81;29.03;36.14;;
69609;Laerm;56815;52.320;4.858;2023-11-21T01:26:07;31.05;29.29;35.31;;
69609;Laerm;56815;52.320;4.858;2023-11-21T01:27:02;32.89;29.25;49.76;;
69609;Laerm;56815;52.320;4.858;2023-11-21T01:27:12;39.21;31.54;53.20;;
69609;Laerm;56815;52.320;4.858;2023-11-21T01:27:22;42.78;32.35;59.73;;
69609;Laerm;56815;52.320;4.858;2023-11-21T01:27:33;40.11;29.97;54.32;;
69609;Laerm;56815;52.320;4.858;2023-11-21T01:27:44;31.77;30.12;37.13;;
69609;Laerm;56815;52.320;4.858;2023-11-21T01:29:03;37.70;29.42;59.73;;
69609;Laerm;56815;52.320;4.858;2023-11-21T01:30:01;40.09;29.37;60.03;;
69609;Laerm;56815;52.320;4.858;2023-11-21T01:30:15;33.10;29.83;45.60;;
69609;Laerm;56815;52.320;4.858;2023-11-21T01:30:46;31.17;29.31;35.56;;
69609;Laerm;56815;52.320;4.858;2023-11-21T01:30:56;31.61;29.66;37.93;;
69609;Laerm;56815;52.320;4.858;2023-11-21T01:31:07;31.64;29.70;34.30;;
69609;Laerm;56815;52.320;4.858;2023-11-21T01:31:18;32.32;30.42;35.46;;
69609;Laerm;56815;52.320;4.858;2023-11-21T01:31:45;31.71;29.44;35.59;;
69609;Laerm;56815;52.320;4.858;2023-11-21T01:32:27;33.07;29.48;53.33;;
69609;Laerm;56815;52.320;4.858;2023-11-21T01:33:30;33.03;29.52;51.55;;
69609;Laerm;56815;52.320;4.858;2023-11-21T01:33:40;31.63;29.49;44.43;;
69609;Laerm;56815;52.320;4.858;2023-11-21T01:34:56;31.83;29.61;40.79;;
69609;Laerm;56815;52.320;4.858;2023-11-21T01:35:07;31.48;29.99;34.36;;
69609;Laerm;56815;52.320;4.858;2023-11-21T01:35:17;31.21;29.62;34.83;;
69609;Laerm;56815;52.320;4.858;2023-11-21T01:35:28;31.97;29.31;47.38;;
69609;Laerm;56815;52.320;4.858;2023-11-21T01:35:38;30.83;29.31;33.60;;
69609;Laerm;56815;52.320;4.858;2023-11-21T01:35:48;30.55;29.01;33.87;;
69609;Laerm;56815;52.320;4.858;2023-11-21T01:35:59;30.73;29.30;36.31;;
69609;Laerm;56815;52.320;4.858;2023-11-21T01:36:10;31.72;29.34;46.80;;
69609;Laerm;56815;52.320;4.858;2023-11-21T01:37:17;31.30;29.34;50.05;;
69609;Laerm;56815;52.320;4.858;2023-11-21T01:37:27;31.74;29.64;39.43;;
69609;Laerm;56815;52.320;4.858;2023-11-21T01:37:41;31.46;29.56;33.63;;
69609;Laerm;56815;52.320;4.858;2023-11-21T01:38:31;31.97;30.06;40.67;;
69609;Laerm;56815;52.320;4.858;2023-11-21T01:38:42;32.24;30.15;38.50;;
69609;Laerm;56815;52.320;4.858;2023-11-21T01:39:59;32.72;29.92;46.09;;
69609;Laerm;56815;52.320;4.858;2023-11-21T01:40:11;32.83;31.06;36.85;;
69609;Laerm;56815;52.320;4.858;2023-11-21T01:40:23;32.88;30.93;35.97;;
69609;Laerm;56815;52.320;4.858;2023-11-21T01:40:34;33.28;30.63;41.92;;
69609;Laerm;56815;52.320;4.858;2023-11-21T01:40:45;34.35;30.92;52.00;;
69609;Laerm;56815;52.320;4.858;2023-11-21T01:40:55;32.58;30.49;40.25;;
69609;Laerm;56815;52.320;4.858;2023-11-21T01:41:05;32.47;30.75;36.56;;
69609;Laerm;56815;52.320;4.858;2023-11-21T01:41:16;32.66;30.39;38.13;;
69609;Laerm;56815;52.320;4.858;2023-11-21T01:42:03;32.67;30.54;36.61;;
69609;Laerm;56815;52.320;4.858;2023-11-21T01:42:16;33.63;30.47;47.48;;
69609;Laerm;56815;52.320;4.858;2023-11-21T01:42:27;32.88;30.74;38.30;;
69609;Laerm;56815;52.320;4.858;2023-11-21T01:42:39;32.78;31.01;36.42;;
69609;Laerm;56815;52.320;4.858;2023-11-21T01:42:50;32.93;31.01;36.69;;
69609;Laerm;56815;52.320;4.858;2023-11-21T01:43:00;32.30;30.39;36.19;;
69609;Laerm;56815;52.320;4.858;2023-11-21T01:43:13;32.78;30.67;34.94;;
69609;Laerm;56815;52.320;4.858;2023-11-21T01:44:10;33.38;30.92;46.49;;
69609;Laerm;56815;52.320;4.858;2023-11-21T01:44:49;33.39;30.44;51.04;;
69609;Laerm;56815;52.320;4.858;2023-11-21T01:45:00;33.35;31.09;40.66;;
69609;Laerm;56815;52.320;4.858;2023-11-21T01:45:14;32.77;30.81;37.01;;
69609;Laerm;56815;52.320;4.858;2023-11-21T01:45:25;33.23;30.93;45.36;;
69609;Laerm;56815;52.320;4.858;2023-11-21T01:45:35;32.82;30.69;34.66;;
69609;Laerm;56815;52.320;4.858;2023-11-21T01:45:46;33.06;30.81;37.49;;
69609;Laerm;56815;52.320;4.858;2023-11-21T01:45:56;33.44;31.55;37.51;;
69609;Laerm;56815;52.320;4.858;2023-11-21T01:46:08;33.75;31.80;36.52;;
69609;Laerm;56815;52.320;4.858;2023-11-21T01:47:03;34.81;32.40;47.39;;
69609;Laerm;56815;52.320;4.858;2023-11-21T01:47:09;33.75;31.21;41.17;;
69609;Laerm;56815;52.320;4.858;2023-11-21T01:47:19;33.97;31.24;41.57;;
69609;Laerm;56815;52.320;4.858;2023-11-21T01:47:32;34.86;32.38;42.18;;
69609;Laerm;56815;52.320;4.858;2023-11-21T01:47:42;33.69;31.56;36.82;;
69609;Laerm;56815;52.320;4.858;2023-11-21T01:48:28;34.79;30.51;45.61;;
69609;Laerm;56815;52.320;4.858;2023-11-21T01:48:39;34.57;32.07;44.47;;
69609;Laerm;56815;52.320;4.858;2023-11-21T01:50:15;33.27;30.17;44.43;;
69609;Laerm;56815;52.320;4.858;2023-11-21T01:50:26;33.15;31.17;36.80;;
69609;Laerm;56815;52.320;4.858;2023-11-21T01:50:37;31.63;29.67;34.14;;
69609;Laerm;56815;52.320;4.858;2023-11-21T01:51:59;31.11;29.06;44.65;;
69609;Laerm;56815;52.320;4.858;2023-11-21T01:52:57;32.05;29.60;45.81;;
69609;Laerm;56815;52.320;4.858;2023-11-21T01:53:07;32.60;30.37;39.54;;
69609;Laerm;56815;52.320;4.858;2023-11-21T01:53:19;32.72;30.63;38.96;;
69609;Laerm;56815;52.320;4.858;2023-11-21T01:53:33;32.43;30.13;40.32;;
69609;Laerm;56815;52.320;4.858;2023-11-21T01:53:43;33.57;31.52;38.66;;
69609;Laerm;56815;52.320;4.858;2023-11-21T01:54:11;34.48;29.91;47.13;;
69609;Laerm;56815;52.320;4.858;2023-11-21T01:54:30;33.73;30.50;44.56;;
69609;Laerm;56815;52.320;4.858;2023-11-21T01:54:56;34.10;30.88;41.09;;
69609;Laerm;56815;52.320;4.858;2023-11-21T01:55:08;34.52;30.38;54.97;;
69609;Laerm;56815;52.320;4.858;2023-11-21T01:55:21;32.30;30.04;42.02;;
69609;Laerm;56815;52.320;4.858;2023-11-21T01:55:32;33.10;30.15;45.30;;
69609;Laerm;56815;52.320;4.858;2023-11-21T01:55:44;31.45;29.05;33.83;;
69609;Laerm;56815;52.320;4.858;2023-11-21T01:57:05;32.05;30.06;44.83;;
69609;Laerm;56815;52.320;4.858;2023-11-21T01:57:19;32.00;30.42;35.53;;
69609;Laerm;56815;52.320;4.858;2023-11-21T01:57:33;31.77;29.96;34.01;;
69609;Laerm;56815;52.320;4.858;2023-11-21T01:57:44;31.94;30.02;34.66;;
69609;Laerm;56815;52.320;4.858;2023-11-21T01:57:58;32.39;30.28;41.35;;
69609;Laerm;56815;52.320;4.858;2023-11-21T01:58:08;32.08;30.26;34.86;;
69609;Laerm;56815;52.320;4.858;2023-11-21T01:58:19;32.10;30.49;34.38;;
69609;Laerm;56815;52.320;4.858;2023-11-21T01:58:32;32.68;31.08;39.34;;
69609;Laerm;56815;52.320;4.858;2023-11-21T01:58:53;32.55;30.35;35.86;;
69609;Laerm;56815;52.320;4.858;2023-11-21T01:59:48;32.47;30.15;39.86;;
69609;Laerm;56815;52.320;4.858;2023-11-21T01:59:58;31.76;29.86;35.23;;
69609;Laerm;56815;52.320;4.858;2023-11-21T02:00:25;35.92;31.23;46.92;;
69609;Laerm;56815;52.320;4.858;2023-11-21T02:01:48;34.11;31.10;54.81;;
69609;Laerm;56815;52.320;4.858;2023-11-21T02:02:12;34.41;31.60;41.03;;
69609;Laerm;56815;52.320;4.858;2023-11-21T02:02:25;34.49;31.00;48.62;;
69609;Laerm;56815;52.320;4.858;2023-11-21T02:02:36;34.60;31.76;40.95;;
69609;Laerm;56815;52.320;4.858;2023-11-21T02:02:46;34.77;31.68;46.39;;
69609;Laerm;56815;52.320;4.858;2023-11-21T02:03:00;33.19;31.18;35.62;;
69609;Laerm;56815;52.320;4.858;2023-11-21T02:03:13;32.97;31.04;35.80;;
69609;Laerm;56815;52.320;4.858;2023-11-21T02:03:23;32.60;30.98;35.14;;
69609;Laerm;56815;52.320;4.858;2023-11-21T02:03:39;31.93;30.46;35.80;;
69609;Laerm;56815;52.320;4.858;2023-11-21T02:05:28;37.57;30.35;65.08;;
69609;Laerm;56815;52.320;4.858;2023-11-21T02:05:39;35.50;30.71;50.89;;